This is the latest recevied weather packets stored in our database for station/object OK1ZDJ-13. If no packets are shown the sender has not sent any weather packets the latest 10 day(s).
| Time | Temp. | Humidity | Pressure | Rain* | Wind** | Luminosity | Snow |
|---|---|---|---|---|---|---|---|
| 1777444650 | 13.33° C | 29% | 1027.6 hPa | - | - | - | - |
| 1777444050 | 13.89° C | 28% | 1027.5 hPa | - | - | - | - |
| 1777443450 | 12.78° C | 31% | 1027.5 hPa | - | - | - | - |
| 1777442850 | 11.67° C | 34% | 1027.5 hPa | - | - | - | - |
| 1777442250 | 10° C | 35% | 1027.3 hPa | - | - | - | - |
| 1777441650 | 8.33° C | 41% | 1027.3 hPa | - | - | - | - |
| 1777441050 | 6.11° C | 48% | 1027.3 hPa | - | - | - | - |
| 1777440450 | 4.44° C | 52% | 1027.3 hPa | - | - | - | - |
| 1777439850 | 2.78° C | 57% | 1027.3 hPa | - | - | - | - |
| 1777439250 | 1.11° C | 67% | 1027.3 hPa | - | - | - | - |
| 1777438650 | 0° C | 69% | 1027.2 hPa | - | - | - | - |
| 1777438050 | -1.11° C | 71% | 1027.2 hPa | - | - | - | - |
| 1777437450 | -1.11° C | 73% | 1027.1 hPa | - | - | - | - |
| 1777436850 | -1.67° C | 72% | 1027 hPa | - | - | - | - |
| 1777436250 | -1.67° C | 73% | 1026.9 hPa | - | - | - | - |
| 1777435650 | -1.67° C | 73% | 1026.8 hPa | - | - | - | - |
| 1777435050 | -1.67° C | 73% | 1026.7 hPa | - | - | - | - |
| 1777434450 | -1.67° C | 73% | 1026.6 hPa | - | - | - | - |
| 1777433855 | -1.67° C | 72% | 1026.6 hPa | - | - | - | - |
| 1777433248 | -1.11° C | 70% | 1026.5 hPa | - | - | - | - |
| 1777432648 | -1.11° C | 71% | 1026.4 hPa | - | - | - | - |
| 1777432048 | -1.11° C | 72% | 1026.4 hPa | - | - | - | - |
| 1777431448 | -1.11° C | 73% | 1026.5 hPa | - | - | - | - |
| 1777430848 | -1.11° C | 72% | 1026.4 hPa | - | - | - | - |
| 1777430248 | -1.11° C | 69% | 1026.5 hPa | - | - | - | - |
* Rain since midnight (hover to see other rain measurements)
** Current wind speed in m/s (hover to see current wind gust speed)